»·PEaware :: CFLAG 63S-7W1

CFLAG :: 63S-7W1

FLIGHT INFORMATION

Flight Status: Arrived
Operator: Unknown
More flights by this operator :: More flights under this callsign
Pilot: Vincent M. (370)
Aircraft: CIRRUS SR-22
(SR22)
More flights by this aircraft type
Origin: 63S Colville Mun
United States
Destination: 7W1 Port Of Ilwaco
United States
More flights between these airports :: More routes between these airports
Route:
File this flight plan on PilotEdge
Remarks: Washington Alphabet Challenge
Altitude:
(Current/Filed)
10,500ft
Speed:
(Current/Filed)
180kts
Departed: 22-May-20 06:48 PM
Arrived: 22-May-20 08:28 PM
Distance/Time
Traveled:
282nm/1:39
Distance/Time
To Go:
Arrived

Flight Plot

Page will automatically refresh every two minutes.


Map Options




Map Legend


Flown Route
Filed Route
Departure Airport
Arrival Airport
Navaid (VOR, NDB)
Fix

Horizontal Profiles

Position Reports

Time Latitude Longitude Heading Altitude Ground
Speed
22-May-20 18:43 48.544404 -117.882056 128 1879ft 0kts
22-May-20 18:44 48.544404 -117.882056 128 1879ft 0kts
22-May-20 18:45 48.545125 -117.881099 30 1879ft 2kts
22-May-20 18:46 48.546903 -117.880387 248 1898ft 20kts
22-May-20 18:47 48.534678 -117.894226 214 2293ft 87kts
22-May-20 18:48 48.508947 -117.905391 184 3118ft 121kts
22-May-20 18:49 48.474011 -117.920628 208 4374ft 141kts
22-May-20 18:50 48.438663 -117.949980 202 5582ft 148kts
22-May-20 18:51 48.400687 -117.976010 204 6787ft 151kts
22-May-20 18:52 48.362067 -118.002600 204 7994ft 153kts
22-May-20 18:53 48.322740 -118.027339 201 9195ft 154kts
22-May-20 18:54 48.283194 -118.052934 227 10397ft 155kts
22-May-20 18:55 48.263549 -118.104824 241 10502ft 189kts
22-May-20 18:56 48.238407 -118.174883 241 10500ft 191kts
22-May-20 18:57 48.218984 -118.228944 241 10499ft 191kts
22-May-20 18:58 48.193517 -118.298760 240 10499ft 190kts
22-May-20 18:59 48.172259 -118.353307 240 10499ft 190kts
22-May-20 19:00 48.153496 -118.401419 240 10499ft 190kts
22-May-20 19:01 48.126707 -118.470151 240 10499ft 190kts
22-May-20 19:02 48.099982 -118.538728 240 10499ft 190kts
22-May-20 19:03 48.073180 -118.607470 240 10499ft 190kts
22-May-20 19:04 48.049242 -118.677255 243 10499ft 190kts
22-May-20 19:05 48.025818 -118.748360 243 10499ft 190kts
22-May-20 19:06 48.002374 -118.819546 243 10499ft 190kts
22-May-20 19:07 47.979087 -118.890414 237 10499ft 190kts
22-May-20 19:08 47.950877 -118.957490 237 10499ft 190kts
22-May-20 19:09 47.921336 -119.022900 236 10499ft 190kts
22-May-20 19:10 47.891657 -119.088158 236 10499ft 190kts
22-May-20 19:11 47.865534 -119.156501 244 10500ft 190kts
22-May-20 19:12 47.842157 -119.227504 244 10499ft 190kts
22-May-20 19:13 47.817893 -119.297271 242 10499ft 190kts
22-May-20 19:14 47.792939 -119.366866 242 10499ft 190kts
22-May-20 19:15 47.768022 -119.436368 242 10499ft 190kts
22-May-20 19:16 47.743116 -119.505848 242 10499ft 190kts
22-May-20 19:18 47.718216 -119.575320 242 10499ft 190kts
22-May-20 19:19 47.691752 -119.643397 238 10499ft 190kts
22-May-20 19:20 47.663642 -119.710172 237 10499ft 190kts
22-May-20 19:21 47.635588 -119.776792 237 10499ft 190kts
22-May-20 19:22 47.608681 -119.844416 241 10499ft 190kts
22-May-20 19:23 47.583015 -119.913118 241 10499ft 190kts
22-May-20 19:24 47.557721 -119.982083 243 10500ft 190kts
22-May-20 19:25 47.533711 -120.051993 243 10499ft 190kts
22-May-20 19:26 47.509706 -120.121918 243 10499ft 190kts
22-May-20 19:27 47.485672 -120.191898 243 10499ft 190kts
22-May-20 19:28 47.459947 -120.260407 240 10499ft 190kts
22-May-20 19:29 47.433493 -120.328353 240 10499ft 190kts
22-May-20 19:30 47.407147 -120.395999 240 10499ft 190kts
22-May-20 19:31 47.380663 -120.463991 240 10499ft 190kts
22-May-20 19:32 47.354295 -120.531667 240 10499ft 190kts
22-May-20 19:33 47.327936 -120.599304 240 10499ft 190kts
22-May-20 19:34 47.301537 -120.667031 240 10499ft 190kts
22-May-20 19:35 47.275149 -120.734715 240 10499ft 190kts
22-May-20 19:35 47.253161 -120.791102 240 10499ft 190kts
22-May-20 19:37 47.222352 -120.870093 240 10499ft 190kts
22-May-20 19:37 47.200313 -120.926587 240 10499ft 190kts
22-May-20 19:38 47.174148 -120.994270 247 10498ft 190kts
22-May-20 19:39 47.163432 -121.070542 259 10500ft 190kts
22-May-20 19:40 47.153404 -121.147397 259 10499ft 190kts
22-May-20 19:41 47.143478 -121.223680 259 10499ft 190kts
22-May-20 19:42 47.133526 -121.300248 259 10499ft 190kts
22-May-20 19:43 47.113206 -121.371839 244 10499ft 190kts
22-May-20 19:44 47.090158 -121.441901 244 10499ft 190kts
22-May-20 19:45 47.067119 -121.511917 244 10499ft 190kts
22-May-20 19:46 47.044460 -121.582197 246 10500ft 190kts
22-May-20 19:47 47.023020 -121.653564 246 10499ft 190kts
22-May-20 19:48 47.001707 -121.724554 246 10499ft 190kts
22-May-20 19:49 46.980350 -121.795686 246 10500ft 190kts
22-May-20 19:50 46.959007 -121.866798 246 10499ft 190kts
22-May-20 19:51 46.935536 -121.935782 220 10497ft 190kts
22-May-20 19:52 46.893007 -121.982093 216 10499ft 190kts
22-May-20 19:53 46.850229 -122.028003 216 10499ft 190kts
22-May-20 19:54 46.807458 -122.073866 216 10499ft 190kts
22-May-20 19:55 46.764713 -122.119664 216 10499ft 190kts
22-May-20 19:56 46.724479 -122.168655 249 10504ft 189kts
22-May-20 19:57 46.708027 -122.242258 252 10499ft 190kts
22-May-20 19:58 46.691904 -122.315811 252 10499ft 190kts
22-May-20 19:59 46.675791 -122.389353 252 10499ft 190kts
22-May-20 20:00 46.659640 -122.463085 252 10499ft 190kts
22-May-20 20:01 46.643425 -122.537443 252 9691ft 192kts
22-May-20 20:02 46.627261 -122.611329 252 8687ft 190kts
22-May-20 20:03 46.611372 -122.683996 252 7686ft 187kts
22-May-20 20:04 46.595658 -122.755909 252 6682ft 185kts
22-May-20 20:05 46.580147 -122.826945 252 5678ft 183kts
22-May-20 20:06 46.564776 -122.897392 252 4671ft 181kts
22-May-20 20:07 46.549995 -122.964807 252 4499ft 171kts
22-May-20 20:08 46.535695 -123.030243 252 4499ft 169kts
22-May-20 20:09 46.521410 -123.095654 252 4499ft 169kts
22-May-20 20:10 46.507104 -123.161185 252 4499ft 169kts
22-May-20 20:11 46.492850 -123.226490 252 4498ft 169kts
22-May-20 20:12 46.478622 -123.291700 252 4498ft 169kts
22-May-20 20:13 46.461498 -123.354983 227 4494ft 169kts
22-May-20 20:14 46.428934 -123.404287 232 4383ft 169kts
22-May-20 20:15 46.401229 -123.457331 233 3868ft 162kts
22-May-20 20:16 46.375059 -123.510298 234 3365ft 160kts
22-May-20 20:17 46.348928 -123.563287 235 2684ft 168kts
22-May-20 20:18 46.321424 -123.619195 235 1684ft 169kts
22-May-20 20:19 46.296554 -123.669362 234 1497ft 138kts
22-May-20 20:20 46.275431 -123.713083 249 1498ft 129kts
22-May-20 20:21 46.266784 -123.763477 261 1500ft 128kts
22-May-20 20:22 46.268765 -123.814455 291 1500ft 128kts
22-May-20 20:23 46.273484 -123.864825 270 1499ft 128kts
22-May-20 20:24 46.281251 -123.913438 295 1462ft 114kts
22-May-20 20:25 46.293987 -123.951388 298 991ft 103kts
22-May-20 20:26 46.307950 -123.986622 300 328ft 91kts
22-May-20 20:27 46.316167 -124.007400 231 10ft 3kts
22-May-20 20:28 46.316097 -124.007448 40 10ft 0kts
22-May-20 20:29 46.316097 -124.007448 40 10ft 0kts
22-May-20 20:30 46.316097 -124.007448 40 10ft 0kts

Navigation Log

Ident Type
Flight plan parsing failed, navigation log unavailable